createdAt,value
2022-12-09T00:02:00.912Z,11.47
2022-12-09T00:04:45.127Z,11.95
2022-12-09T00:07:29.176Z,11.91
2022-12-09T00:10:13.433Z,11.76
2022-12-09T00:12:58.974Z,11.53
2022-12-09T00:15:43.906Z,11.74
2022-12-09T00:18:27.914Z,11.52
2022-12-09T00:21:19.859Z,11.74
2022-12-09T00:24:06.369Z,11.13
2022-12-09T00:26:50.484Z,11.16
2022-12-09T00:29:36.056Z,11.05
2022-12-09T00:32:20.301Z,10.76
2022-12-09T00:35:05.006Z,10.59
2022-12-09T00:37:50.457Z,10.91
2022-12-09T00:40:34.673Z,10.77
2022-12-09T00:43:18.592Z,10.60
2022-12-09T00:46:04.759Z,11.01
2022-12-09T00:48:48.889Z,10.69
2022-12-09T00:51:33.013Z,10.54
2022-12-09T00:54:18.255Z,10.98
2022-12-09T00:57:02.878Z,10.63
2022-12-09T00:59:46.834Z,10.83
2022-12-09T01:02:32.330Z,10.98
2022-12-09T01:05:16.870Z,10.67
2022-12-09T01:08:00.760Z,10.86
2022-12-09T01:10:45.984Z,11.16
2022-12-09T01:13:29.714Z,10.88
2022-12-09T01:16:18.038Z,10.87
2022-12-09T01:19:06.369Z,11.24
2022-12-09T01:21:50.370Z,11.01
2022-12-09T01:24:34.247Z,10.64
2022-12-09T01:27:17.908Z,10.88
2022-12-09T01:30:01.654Z,10.81
2022-12-09T01:32:47.097Z,10.76
2022-12-09T01:35:32.495Z,11.12
2022-12-09T01:38:16.507Z,10.93
2022-12-09T01:41:00.527Z,10.69
2022-12-09T01:43:44.846Z,10.77
2022-12-09T01:46:28.899Z,10.73
2022-12-09T01:49:18.271Z,10.78
2022-12-09T01:52:10.370Z,10.80
2022-12-09T01:54:55.720Z,10.88
2022-12-09T01:57:40.647Z,11.03
2022-12-09T02:00:24.759Z,10.77
2022-12-09T02:03:08.934Z,10.79
2022-12-09T02:05:53.404Z,10.77
2022-12-09T02:08:38.949Z,10.81
2022-12-09T02:11:31.962Z,10.93
2022-12-09T02:14:20.576Z,10.68
2022-12-09T02:17:25.214Z,10.92
2022-12-09T02:20:19.913Z,10.65
2022-12-09T02:23:12.817Z,10.86
2022-12-09T02:26:09.552Z,11.09
2022-12-09T02:29:23.001Z,10.90
2022-12-09T02:32:24.139Z,10.76
2022-12-09T02:35:13.063Z,10.70
2022-12-09T02:38:02.258Z,10.82
2022-12-09T02:40:51.703Z,10.99
2022-12-09T02:43:41.145Z,10.74
2022-12-09T02:46:30.861Z,11.08
2022-12-09T02:49:17.562Z,11.02
2022-12-09T02:52:04.376Z,11.00
2022-12-09T02:54:48.802Z,11.03
2022-12-09T02:57:36.056Z,10.69
2022-12-09T03:00:20.456Z,10.46
2022-12-09T03:03:06.588Z,10.65
2022-12-09T03:05:57.703Z,10.82
2022-12-09T03:08:49.109Z,10.80
2022-12-09T03:11:34.354Z,10.81
2022-12-09T03:14:22.618Z,10.62
2022-12-09T03:17:13.999Z,10.65
2022-12-09T03:20:02.117Z,10.26
2022-12-09T03:22:49.208Z,10.01
2022-12-09T03:25:39.742Z,10.34
2022-12-09T03:28:29.154Z,10.46
2022-12-09T03:31:19.125Z,10.48
2022-12-09T03:34:05.680Z,9.82
2022-12-09T03:36:53.225Z,10.26
2022-12-09T03:39:40.061Z,10.32
2022-12-09T03:42:32.482Z,10.13
2022-12-09T03:45:19.142Z,10.26
2022-12-09T03:48:03.649Z,9.98
2022-12-09T03:50:53.578Z,9.75
2022-12-09T03:53:44.468Z,9.96
2022-12-09T03:56:30.135Z,10.16
2022-12-09T03:59:17.364Z,10.34
2022-12-09T04:02:01.680Z,10.20
2022-12-09T04:04:46.137Z,10.20
2022-12-09T04:07:30.251Z,10.17
2022-12-09T04:10:14.362Z,10.06
2022-12-09T04:12:58.393Z,10.09
2022-12-09T04:15:43.706Z,10.39
2022-12-09T04:18:27.631Z,9.92
2022-12-09T04:21:14.584Z,9.97
2022-12-09T04:23:58.406Z,10.00
2022-12-09T04:26:43.306Z,10.26
2022-12-09T04:29:27.499Z,10.13
2022-12-09T04:32:12.860Z,10.20
2022-12-09T04:34:57.325Z,10.09
2022-12-09T04:37:41.383Z,9.82
2022-12-09T04:40:25.401Z,9.87
2022-12-09T04:43:09.749Z,9.97
2022-12-09T04:45:54.288Z,9.80
2022-12-09T04:48:39.851Z,9.76
2022-12-09T04:51:24.102Z,9.74
2022-12-09T04:54:08.960Z,9.56
2022-12-09T04:56:53.385Z,9.82
2022-12-09T04:59:37.436Z,9.72
2022-12-09T05:02:21.894Z,9.75
2022-12-09T05:05:08.737Z,10.04
2022-12-09T05:07:53.363Z,9.68
2022-12-09T05:10:37.753Z,9.63
2022-12-09T05:13:22.027Z,9.70
2022-12-09T05:16:13.901Z,9.96
2022-12-09T05:19:01.660Z,10.12
2022-12-09T05:21:47.577Z,9.83
2022-12-09T05:24:33.396Z,9.69
2022-12-09T05:27:17.491Z,9.89
2022-12-09T05:30:01.851Z,9.72
2022-12-09T05:32:46.793Z,9.89
2022-12-09T05:35:31.065Z,10.17
2022-12-09T05:38:16.803Z,9.96
2022-12-09T05:41:01.473Z,10.13
2022-12-09T05:43:46.510Z,9.73
2022-12-09T05:46:31.339Z,9.80
2022-12-09T05:49:15.570Z,10.05
2022-12-09T05:52:00.323Z,10.18
2022-12-09T05:54:46.012Z,10.37
2022-12-09T05:57:30.045Z,10.18
2022-12-09T06:00:15.794Z,10.30
2022-12-09T06:03:00.224Z,10.66
2022-12-09T06:05:45.145Z,10.67
2022-12-09T06:08:29.774Z,10.70
2022-12-09T06:11:17.475Z,10.78
2022-12-09T06:14:02.209Z,10.77
2022-12-09T06:16:46.718Z,11.03
2022-12-09T06:19:31.090Z,11.48
2022-12-09T06:22:15.675Z,11.66
2022-12-09T06:24:59.657Z,11.51
2022-12-09T06:27:45.119Z,11.63
2022-12-09T06:30:29.147Z,11.22
2022-12-09T06:33:37.311Z,11.15
2022-12-09T06:36:17.423Z,11.01
2022-12-09T06:39:09.964Z,10.76
2022-12-09T06:41:55.470Z,11.24
2022-12-09T06:44:41.533Z,11.56
2022-12-09T06:47:25.691Z,11.79
2022-12-09T06:50:10.957Z,12.02
2022-12-09T06:52:55.665Z,12.11
2022-12-09T06:55:39.867Z,12.13
2022-12-09T06:58:23.929Z,12.21
2022-12-09T07:01:13.938Z,12.25
2022-12-09T07:03:58.848Z,12.65
2022-12-09T07:06:45.439Z,12.67
2022-12-09T07:09:29.632Z,12.64
2022-12-09T07:12:13.827Z,12.44
2022-12-09T07:14:58.240Z,13.30
2022-12-09T07:17:43.973Z,13.52
2022-12-09T07:20:28.481Z,13.75
2022-12-09T07:23:13.733Z,14.15
2022-12-09T07:25:58.539Z,14.21
2022-12-09T07:28:44.214Z,14.30
2022-12-09T07:31:29.605Z,14.25
2022-12-09T07:34:15.174Z,14.28
2022-12-09T07:36:59.219Z,14.40
2022-12-09T07:39:43.085Z,14.21
2022-12-09T07:42:26.952Z,14.44
2022-12-09T07:45:13.277Z,14.20
2022-12-09T07:47:57.756Z,14.00
2022-12-09T07:50:43.452Z,14.10
2022-12-09T07:53:27.724Z,14.18
2022-12-09T07:56:13.404Z,14.19
2022-12-09T07:58:58.186Z,14.18
2022-12-09T08:01:42.843Z,14.19
2022-12-09T08:04:27.216Z,14.15
2022-12-09T08:07:13.699Z,14.18
2022-12-09T08:09:58.000Z,14.19
2022-12-09T08:12:41.889Z,13.99
2022-12-09T08:15:26.178Z,14.08
2022-12-09T08:18:10.380Z,14.17
2022-12-09T08:20:54.694Z,14.09
2022-12-09T08:23:42.039Z,14.06
2022-12-09T08:26:29.410Z,14.01
2022-12-09T08:29:15.303Z,13.12
2022-12-09T08:31:59.932Z,13.25
2022-12-09T08:34:44.285Z,13.89
2022-12-09T08:37:28.587Z,14.03
2022-12-09T08:40:15.464Z,13.71
2022-12-09T08:42:59.943Z,13.62
2022-12-09T08:45:44.307Z,13.86
2022-12-09T08:48:28.821Z,14.18
2022-12-09T08:51:13.489Z,14.46
2022-12-09T08:53:58.738Z,14.48
2022-12-09T08:56:47.861Z,14.52
2022-12-09T08:59:32.296Z,14.61
2022-12-09T09:02:16.430Z,14.38
2022-12-09T09:05:00.797Z,14.71
2022-12-09T09:07:47.007Z,14.75
2022-12-09T09:10:31.287Z,14.66
2022-12-09T09:13:17.004Z,15.32
2022-12-09T09:16:01.302Z,15.17
2022-12-09T09:18:45.978Z,15.45
2022-12-09T09:21:30.548Z,15.49
2022-12-09T09:24:18.232Z,14.99
2022-12-09T09:27:02.771Z,15.20
2022-12-09T09:29:48.383Z,15.31
2022-12-09T09:32:32.984Z,15.55
2022-12-09T09:35:17.228Z,15.54
2022-12-09T09:38:01.419Z,15.42
2022-12-09T09:40:45.811Z,15.53
2022-12-09T09:43:35.577Z,15.63
2022-12-09T09:46:35.021Z,15.50
2022-12-09T09:49:26.263Z,16.02
2022-12-09T09:52:17.080Z,15.96
2022-12-09T09:55:01.425Z,15.99
2022-12-09T09:57:50.507Z,15.87
2022-12-09T10:00:40.534Z,15.66
2022-12-09T10:03:37.418Z,15.96
2022-12-09T10:06:33.544Z,15.56
2022-12-09T10:09:28.372Z,16.23
2022-12-09T10:12:21.304Z,15.87
2022-12-09T10:15:11.519Z,16.44
2022-12-09T10:18:06.471Z,16.59
2022-12-09T10:20:52.136Z,16.51
2022-12-09T10:23:36.147Z,16.39
2022-12-09T10:26:24.657Z,16.99
2022-12-09T10:29:18.752Z,17.07
2022-12-09T10:32:02.912Z,16.95
2022-12-09T10:34:47.707Z,16.72
2022-12-09T10:37:36.200Z,16.53
2022-12-09T10:40:27.661Z,16.31
2022-12-09T10:43:42.521Z,16.65
2022-12-09T10:46:27.570Z,16.71
2022-12-09T10:49:20.904Z,16.41
2022-12-09T10:52:05.797Z,16.46
2022-12-09T10:54:52.328Z,16.74
2022-12-09T10:57:36.274Z,17.05
2022-12-09T11:00:31.033Z,17.13
2022-12-09T11:03:27.875Z,17.40
2022-12-09T11:06:25.207Z,17.32
2022-12-09T11:09:23.253Z,17.21
2022-12-09T11:12:18.416Z,16.76
2022-12-09T11:15:04.577Z,17.47
2022-12-09T11:17:58.599Z,17.92
2022-12-09T11:20:42.972Z,17.80
2022-12-09T11:23:28.000Z,17.52
2022-12-09T11:26:24.679Z,17.57
2022-12-09T11:29:17.804Z,17.46
2022-12-09T11:32:03.988Z,17.84
2022-12-09T11:34:48.533Z,18.06
2022-12-09T11:37:33.577Z,17.99
2022-12-09T11:40:18.291Z,17.59
2022-12-09T11:43:02.156Z,17.73
2022-12-09T11:45:47.378Z,17.34
2022-12-09T11:48:41.727Z,17.34
2022-12-09T11:51:30.159Z,17.64
2022-12-09T11:54:21.570Z,17.61
2022-12-09T11:57:07.651Z,17.53
2022-12-09T11:59:56.492Z,17.37
2022-12-09T12:02:45.468Z,17.35
2022-12-09T12:05:35.227Z,17.19
2022-12-09T12:08:26.886Z,17.31
2022-12-09T12:11:15.593Z,17.25
2022-12-09T12:14:04.921Z,17.04
2022-12-09T12:16:58.503Z,17.34
2022-12-09T12:19:52.372Z,17.36
2022-12-09T12:23:01.574Z,17.71
2022-12-09T12:25:54.988Z,17.94
2022-12-09T12:29:02.545Z,17.99
2022-12-09T12:32:16.933Z,18.16
2022-12-09T12:35:19.941Z,17.36
2022-12-09T12:38:19.031Z,17.98
2022-12-09T12:41:13.137Z,18.26
2022-12-09T12:44:26.225Z,18.39
2022-12-09T12:47:19.423Z,17.97
2022-12-09T12:50:31.995Z,17.99
2022-12-09T12:53:25.761Z,17.70
2022-12-09T12:56:14.733Z,17.29
2022-12-09T12:59:07.727Z,17.15
2022-12-09T13:01:54.656Z,17.05
2022-12-09T13:04:45.156Z,16.89
2022-12-09T13:07:37.841Z,16.60
2022-12-09T13:10:28.626Z,16.79
2022-12-09T13:13:20.687Z,16.58
2022-12-09T13:16:15.124Z,16.51
2022-12-09T13:19:07.081Z,16.35
2022-12-09T13:21:51.697Z,16.16
2022-12-09T13:24:42.375Z,16.15
2022-12-09T13:27:34.751Z,16.00
2022-12-09T13:30:22.012Z,15.74
2022-12-09T13:33:27.088Z,15.69
2022-12-09T13:36:19.513Z,15.36
2022-12-09T13:39:03.368Z,15.25
2022-12-09T13:42:06.001Z,14.94
2022-12-09T13:44:49.748Z,15.21
2022-12-09T13:47:37.596Z,15.00
2022-12-09T13:50:27.590Z,14.78
2022-12-09T13:53:27.188Z,14.75
2022-12-09T13:56:22.638Z,14.76
2022-12-09T13:59:43.619Z,14.81
2022-12-09T14:02:35.822Z,14.72
2022-12-09T14:05:23.045Z,14.51
2022-12-09T14:08:20.622Z,14.50
2022-12-09T14:11:49.347Z,14.42
2022-12-09T14:14:55.954Z,14.44
2022-12-09T14:18:02.171Z,14.29
2022-12-09T14:21:24.463Z,14.33
2022-12-09T14:24:33.828Z,14.30
2022-12-09T14:27:19.721Z,13.99
2022-12-09T14:30:26.472Z,14.16
2022-12-09T14:33:23.160Z,14.00
2022-12-09T14:36:21.378Z,13.95
2022-12-09T14:39:25.457Z,13.77
2022-12-09T14:42:14.301Z,13.69
2022-12-09T14:45:05.062Z,13.63
2022-12-09T14:47:50.320Z,13.51
2022-12-09T14:50:38.409Z,13.46
2022-12-09T14:53:24.638Z,13.39
2022-12-09T14:56:09.034Z,13.18
2022-12-09T14:58:57.032Z,13.14
2022-12-09T15:01:52.183Z,12.99
2022-12-09T15:04:43.001Z,12.90
2022-12-09T15:07:28.821Z,12.86
2022-12-09T15:10:20.921Z,12.80
2022-12-09T15:13:05.536Z,12.71
2022-12-09T15:15:49.350Z,12.51
2022-12-09T15:18:34.845Z,12.63
2022-12-09T15:21:31.191Z,12.73
2022-12-09T15:24:16.450Z,12.56
2022-12-09T15:27:02.741Z,12.46
2022-12-09T15:29:46.854Z,12.33
2022-12-09T15:32:31.766Z,12.20
2022-12-09T15:35:22.520Z,12.30
2022-12-09T15:38:10.130Z,12.19
2022-12-09T15:41:13.740Z,12.49
2022-12-09T15:44:02.325Z,12.51
2022-12-09T15:46:48.464Z,12.48
2022-12-09T15:49:36.828Z,12.30
2022-12-09T15:52:25.114Z,12.36
2022-12-09T15:55:16.198Z,12.45
2022-12-09T15:58:03.661Z,12.51
2022-12-09T16:00:50.304Z,12.40
2022-12-09T16:03:36.273Z,12.56
2022-12-09T16:06:27.628Z,12.58
2022-12-09T16:09:14.337Z,12.74
2022-12-09T16:11:59.494Z,12.66
2022-12-09T16:14:45.580Z,12.40
2022-12-09T16:17:35.076Z,12.45
2022-12-09T16:20:30.217Z,12.43
2022-12-09T16:23:22.436Z,12.63
2022-12-09T16:26:07.667Z,12.55
2022-12-09T16:28:57.991Z,12.57
2022-12-09T16:31:42.143Z,12.45
2022-12-09T16:34:28.369Z,12.67
2022-12-09T16:37:25.151Z,12.79
2022-12-09T16:40:58.169Z,12.86
2022-12-09T16:43:58.927Z,12.79
2022-12-09T16:46:42.901Z,12.68
2022-12-09T16:49:26.661Z,12.73
2022-12-09T16:52:13.421Z,12.73
2022-12-09T16:54:57.206Z,12.74
2022-12-09T16:57:40.894Z,12.72
2022-12-09T17:00:26.489Z,12.61
2022-12-09T17:03:17.926Z,12.49
2022-12-09T17:06:01.626Z,12.46
2022-12-09T17:08:45.938Z,12.56
2022-12-09T17:11:29.790Z,12.50
2022-12-09T17:14:13.560Z,12.49
2022-12-09T17:16:58.754Z,12.61
2022-12-09T17:19:42.990Z,12.61
2022-12-09T17:22:26.808Z,12.62
2022-12-09T17:25:11.047Z,12.36
2022-12-09T17:27:55.143Z,12.27
2022-12-09T17:30:39.649Z,12.29
2022-12-09T17:33:27.905Z,12.19
2022-12-09T17:36:12.468Z,12.17
2022-12-09T17:38:56.499Z,12.32
2022-12-09T17:41:40.418Z,12.10
2022-12-09T17:44:24.198Z,12.43
2022-12-09T17:47:07.990Z,12.44
2022-12-09T17:49:53.183Z,12.49
2022-12-09T17:52:37.133Z,12.25
2022-12-09T17:55:21.030Z,12.37
2022-12-09T17:58:05.057Z,12.49
2022-12-09T18:00:48.932Z,12.39
2022-12-09T18:03:55.131Z,12.37
2022-12-09T18:06:40.831Z,12.33
2022-12-09T18:09:25.642Z,12.33
2022-12-09T18:12:09.368Z,12.24
2022-12-09T18:14:53.504Z,12.13
2022-12-09T18:17:37.259Z,12.15
2022-12-09T18:20:21.283Z,12.14
2022-12-09T18:23:06.397Z,12.32
2022-12-09T18:25:50.498Z,12.39
2022-12-09T18:28:34.280Z,12.38
2022-12-09T18:31:19.867Z,12.12
2022-12-09T18:34:03.847Z,12.30
2022-12-09T18:36:47.550Z,12.31
2022-12-09T18:39:32.726Z,12.38
2022-12-09T18:42:17.795Z,11.95
2022-12-09T18:45:01.793Z,11.85
2022-12-09T18:47:47.347Z,12.00
2022-12-09T18:50:31.348Z,11.87
2022-12-09T18:53:15.479Z,12.30
2022-12-09T18:56:00.768Z,12.00
2022-12-09T18:59:05.250Z,12.12
2022-12-09T19:01:49.720Z,12.09
2022-12-09T19:04:33.974Z,12.04
2022-12-09T19:07:17.858Z,12.18
2022-12-09T19:10:01.594Z,12.20
2022-12-09T19:12:49.711Z,12.33
2022-12-09T19:15:35.482Z,11.45
2022-12-09T19:18:19.322Z,12.36
2022-12-09T19:21:09.268Z,12.29
2022-12-09T19:23:53.363Z,12.14
2022-12-09T19:26:38.183Z,12.38
2022-12-09T19:29:24.727Z,12.34
2022-12-09T19:32:29.366Z,12.40
2022-12-09T19:35:12.344Z,12.61
2022-12-09T19:38:01.070Z,12.70
2022-12-09T19:40:45.259Z,12.72
2022-12-09T19:43:29.236Z,12.63
2022-12-09T19:46:15.890Z,12.80
2022-12-09T19:49:00.040Z,12.73
2022-12-09T19:51:44.423Z,12.80
2022-12-09T19:54:29.849Z,12.48
2022-12-09T19:57:13.564Z,12.83
2022-12-09T19:59:57.583Z,12.79
2022-12-09T20:02:42.687Z,12.84
2022-12-09T20:05:26.642Z,12.90
2022-12-09T20:08:10.427Z,12.87
2022-12-09T20:10:54.114Z,12.74
2022-12-09T20:13:37.834Z,12.80
2022-12-09T20:16:23.543Z,12.91
2022-12-09T20:19:09.493Z,12.92
2022-12-09T20:21:53.267Z,12.76
2022-12-09T20:24:37.036Z,12.94
2022-12-09T20:27:21.154Z,12.30
2022-12-09T20:30:05.623Z,12.93
2022-12-09T20:32:49.649Z,12.95
2022-12-09T20:35:36.881Z,13.02
2022-12-09T20:38:20.567Z,12.93
2022-12-09T20:41:05.874Z,12.97
2022-12-09T20:43:51.042Z,13.01
2022-12-09T20:46:35.651Z,13.03
2022-12-09T20:49:25.567Z,12.99
2022-12-09T20:52:10.706Z,13.00
2022-12-09T20:54:54.505Z,12.69
2022-12-09T20:57:38.333Z,12.98
2022-12-09T21:00:22.294Z,13.12
2022-12-09T21:03:06.147Z,13.17
2022-12-09T21:05:49.941Z,13.18
2022-12-09T21:08:35.447Z,13.04
2022-12-09T21:11:20.812Z,13.01
2022-12-09T21:14:06.917Z,12.82
2022-12-09T21:16:51.467Z,12.72
2022-12-09T21:19:35.369Z,12.41
2022-12-09T21:22:19.110Z,12.52
2022-12-09T21:25:04.424Z,12.58
2022-12-09T21:27:48.318Z,12.38
2022-12-09T21:30:32.203Z,12.02
2022-12-09T21:33:15.950Z,12.30
2022-12-09T21:36:01.126Z,12.26
2022-12-09T21:38:45.626Z,12.02
2022-12-09T21:41:34.033Z,11.86
2022-12-09T21:44:20.111Z,12.18
2022-12-09T21:47:04.075Z,12.16
2022-12-09T21:49:48.109Z,12.06
2022-12-09T21:52:32.053Z,12.21
2022-12-09T21:55:16.090Z,12.27
2022-12-09T21:58:01.578Z,12.48
2022-12-09T22:00:45.643Z,12.37
2022-12-09T22:03:29.547Z,12.76
2022-12-09T22:06:14.106Z,12.70
2022-12-09T22:08:59.975Z,12.56
2022-12-09T22:11:44.129Z,12.71
2022-12-09T22:14:29.638Z,12.74
2022-12-09T22:17:13.657Z,13.02
2022-12-09T22:20:25.674Z,12.73
2022-12-09T22:23:01.760Z,12.61
2022-12-09T22:25:45.927Z,12.83
2022-12-09T22:28:30.584Z,12.77
2022-12-09T22:31:18.135Z,12.94
2022-12-09T22:34:04.651Z,12.82
2022-12-09T22:36:49.605Z,12.69
2022-12-09T22:39:33.574Z,12.92
2022-12-09T22:42:17.615Z,12.60
2022-12-09T22:45:01.737Z,12.37
2022-12-09T22:47:48.238Z,12.50
2022-12-09T22:50:32.369Z,12.16
2022-12-09T22:53:16.428Z,12.41
2022-12-09T22:56:00.551Z,12.65
2022-12-09T22:58:44.536Z,12.90
2022-12-09T23:01:31.061Z,12.76
2022-12-09T23:04:18.273Z,13.19
2022-12-09T23:07:02.158Z,13.12
2022-12-09T23:09:46.140Z,13.18
2022-12-09T23:12:30.088Z,13.48
2022-12-09T23:15:14.087Z,13.57
2022-12-09T23:17:58.620Z,13.50
2022-12-09T23:20:44.013Z,13.35
2022-12-09T23:23:28.003Z,13.46
2022-12-09T23:26:14.421Z,13.79
2022-12-09T23:28:59.906Z,13.72
2022-12-09T23:31:44.487Z,13.74
2022-12-09T23:34:28.386Z,13.87
2022-12-09T23:37:14.462Z,13.70
2022-12-09T23:39:58.357Z,13.79
2022-12-09T23:42:42.351Z,13.72
2022-12-09T23:45:26.375Z,13.72
2022-12-09T23:48:10.319Z,13.98
2022-12-09T23:50:55.043Z,13.71
2022-12-09T23:53:41.612Z,13.93
2022-12-09T23:56:27.474Z,14.01
2022-12-09T23:59:14.517Z,13.67
